Terminal Aerodrome Forecast
Issued by NWS

Home | Current Version | Previous Version | Text Only | Print | Product List | Glossary Off
Versions: 1 2 3 4 5 6 7 8 9 10 11 12 13 14 15 16 17

000
FTUS43 KTOP 080500
TAFFOE
TAF
KFOE 080520Z 0806/0906 06007KT 6SM -SHRA VCTS BKN050CB
      TEMPO 0807/0809 5SM -TSRA BKN035CB
     FM081000 36009KT P6SM SCT030 BKN120
     FM081400 34010KT P6SM SKC=

USA.gov is the U.S. government's official web portal to all federal, state and local government web resources and services.